Time;durP1;ratioP1;P1;durP2;ratioP2;P2;SDS_P1;SDS_P2;PMS_P1;PMS_P2;Temp;Humidity;BMP_temperature;BMP_pressure;BME280_temperature;BME280_humidity;BME280_pressure;Samples;Min_cycle;Max_cycle;Signal;HPM_P1;HPM_P2
2022/07/18 00:02:12;;;;;;;6.90;0.82;;;;;;;25.17;32.45;102128.59;4996376;28;20103;-65
2022/07/18 00:04:38;;;;;;;2.35;1.42;;;;;;;25.15;33.19;102138.91;5012836;28;20033;-65
2022/07/18 00:07:03;;;;;;;1.95;0.63;;;;;;;25.09;32.79;102128.69;5012756;28;20029;-65
2022/07/18 00:09:28;;;;;;;2.75;1.00;;;;;;;25.06;33.44;102130.97;4992787;28;20476;-65
2022/07/18 00:11:54;;;;;;;4.78;0.90;;;;;;;25.03;32.96;102134.09;4994402;28;20037;-65
2022/07/18 00:14:20;;;;;;;1.98;0.77;;;;;;;25.00;32.70;102134.47;4993166;28;20030;-65
2022/07/18 00:16:46;;;;;;;6.72;0.90;;;;;;;24.97;33.52;102132.13;4993022;28;20034;-65
2022/07/18 00:19:11;;;;;;;2.97;0.93;;;;;;;24.93;33.69;102128.91;4992960;28;20022;-65
2022/07/18 00:21:37;;;;;;;4.53;1.10;;;;;;;24.84;33.05;102136.41;4992869;28;20596;-65
2022/07/18 00:24:02;;;;;;;3.05;0.80;;;;;;;24.84;33.72;102130.91;5009139;28;20514;-65
2022/07/18 00:26:27;;;;;;;6.90;2.13;;;;;;;24.83;33.56;102131.94;4976598;28;20055;-66
2022/07/18 00:28:53;;;;;;;7.20;1.30;;;;;;;24.77;33.81;102123.59;4993981;28;20062;-65
2022/07/18 00:31:18;;;;;;;20.08;3.00;;;;;;;24.74;33.70;102130.31;4979888;28;20026;-65
2022/07/18 00:33:44;;;;;;;5.47;0.90;;;;;;;24.72;33.33;102124.19;5012442;28;20030;-65
2022/07/18 00:36:09;;;;;;;5.18;1.30;;;;;;;24.69;33.62;102123.69;5013385;28;20503;-65
2022/07/18 00:38:35;;;;;;;4.00;1.27;;;;;;;24.67;33.38;102128.53;4995942;28;20053;-65
2022/07/18 00:41:00;;;;;;;3.83;0.95;;;;;;;24.61;33.64;102113.69;5012446;28;20018;-65
2022/07/18 00:43:26;;;;;;;0.75;0.75;;;;;;;24.59;33.60;102113.03;5012336;28;20471;-65
2022/07/18 00:45:52;;;;;;;5.72;0.80;;;;;;;24.54;33.82;102114.66;4997801;28;20041;-66
2022/07/18 00:48:18;;;;;;;2.72;1.55;;;;;;;24.49;33.63;102111.59;4960536;28;20105;-65
2022/07/18 00:50:44;;;;;;;2.00;1.65;;;;;;;24.44;34.42;102114.91;4980089;28;20129;-65
2022/07/18 00:53:10;;;;;;;2.60;0.80;;;;;;;24.40;34.18;102104.53;4996730;28;20053;-65
2022/07/18 00:55:41;;;;;;;2.67;0.80;;;;;;;24.37;34.28;102104.91;4980726;28;20041;-65
2022/07/18 00:58:08;;;;;;;1.60;0.77;;;;;;;24.37;33.70;102105.78;4996599;28;20030;-65
2022/07/18 01:03:17;;;;;;;4.05;0.85;;;;;;;24.31;34.44;102090.09;4996639;28;20566;-65
2022/07/18 01:05:42;;;;;;;2.50;1.08;;;;;;;24.28;34.25;102094.03;4996412;28;20058;-66
2022/07/18 01:08:08;;;;;;;6.15;1.45;;;;;;;24.27;34.94;102105.19;4997788;28;20037;-65
2022/07/18 01:10:33;;;;;;;6.32;1.20;;;;;;;24.23;34.06;102098.38;4997534;28;20551;-65
2022/07/18 01:12:59;;;;;;;5.20;1.30;;;;;;;24.21;34.75;102094.97;4980180;28;20448;-65
2022/07/18 01:15:24;;;;;;;4.15;1.20;;;;;;;24.16;33.98;102094.69;4979874;28;20022;-66
2022/07/18 01:17:49;;;;;;;2.15;0.90;;;;;;;24.14;34.83;102094.03;4980175;28;20436;-65
2022/07/18 01:20:15;;;;;;;1.55;1.45;;;;;;;24.11;34.06;102095.25;4997328;28;20106;-65
2022/07/18 01:22:41;;;;;;;4.50;0.90;;;;;;;24.09;35.25;102091.81;4996138;28;20117;-65
2022/07/18 01:25:08;;;;;;;5.57;0.93;;;;;;;24.05;34.93;102084.16;4980015;28;20480;-65
2022/07/18 01:27:33;;;;;;;4.10;1.05;;;;;;;24.02;35.45;102090.00;4963858;28;20034;-65
2022/07/18 01:29:59;;;;;;;3.53;1.13;;;;;;;23.97;34.57;102082.34;5002078;28;20499;-65
2022/07/18 01:32:25;;;;;;;2.10;0.93;;;;;;;23.90;35.05;102086.03;5016765;28;20029;-65
2022/07/18 01:34:51;;;;;;;1.98;1.42;;;;;;;23.86;35.51;102095.63;5015613;28;20087;-65
2022/07/18 01:37:17;;;;;;;2.08;1.20;;;;;;;23.84;35.51;102097.72;5015383;28;20499;-65
2022/07/18 01:39:43;;;;;;;6.45;1.42;;;;;;;23.81;34.63;102098.94;5015632;28;20025;-65
2022/07/18 01:42:10;;;;;;;5.38;1.10;;;;;;;23.81;34.47;102095.34;5015506;28;20022;-65
2022/07/18 01:44:36;;;;;;;4.22;1.63;;;;;;;23.77;35.03;102097.59;5015242;28;20050;-65
2022/07/18 01:47:03;;;;;;;5.03;1.10;;;;;;;23.73;34.85;102093.50;5015551;28;20030;-65
2022/07/18 01:49:32;;;;;;;2.95;1.15;;;;;;;23.68;35.39;102085.00;5015152;28;20029;-65
2022/07/18 01:51:58;;;;;;;2.30;1.00;;;;;;;23.63;35.78;102088.31;5015210;28;20025;-65
2022/07/18 01:54:25;;;;;;;3.30;2.20;;;;;;;23.57;35.22;102086.31;4999005;28;20184;-65
2022/07/18 01:56:50;;;;;;;2.17;1.10;;;;;;;23.54;35.85;102081.19;5015131;28;20392;-65
2022/07/18 01:59:16;;;;;;;9.43;1.35;;;;;;;23.52;35.56;102088.75;5015093;28;20022;-65
2022/07/18 02:01:42;;;;;;;2.70;1.00;;;;;;;23.48;35.94;102081.09;4997427;28;20036;-65
2022/07/18 02:04:07;;;;;;;3.80;1.13;;;;;;;23.46;35.37;102078.53;5008781;28;20037;-65
2022/07/18 02:06:33;;;;;;;2.05;1.13;;;;;;;23.43;35.27;102078.03;4995334;28;20026;-65
2022/07/18 02:08:58;;;;;;;3.88;1.50;;;;;;;23.40;35.67;102076.50;4995382;28;20080;-65
2022/07/18 02:11:23;;;;;;;2.08;1.05;;;;;;;23.37;35.83;102074.09;4979167;28;20484;-65
2022/07/18 02:13:49;;;;;;;7.65;0.85;;;;;;;23.37;35.88;102078.72;4995314;28;20032;-65
2022/07/18 02:16:15;;;;;;;3.08;1.25;;;;;;;23.32;35.92;102071.06;4979063;28;20035;-65
2022/07/18 02:18:40;;;;;;;2.33;1.10;;;;;;;23.28;35.80;102068.91;4979186;28;20035;-65
2022/07/18 02:21:07;;;;;;;8.50;1.42;;;;;;;23.21;35.92;102066.03;4996367;28;20088;-65
2022/07/18 02:23:33;;;;;;;4.03;1.33;;;;;;;23.20;36.54;102075.25;4979254;28;20548;-65
2022/07/18 02:25:58;;;;;;;3.83;1.10;;;;;;;23.13;36.45;102071.56;4995582;28;20121;-65
2022/07/18 02:28:24;;;;;;;3.58;1.15;;;;;;;23.07;36.62;102066.81;5011548;28;20113;-65
2022/07/18 02:30:49;;;;;;;6.07;1.45;;;;;;;23.09;36.65;102070.19;5015542;28;20032;-65
2022/07/18 02:33:15;;;;;;;1.95;1.00;;;;;;;23.07;36.63;102077.72;5014459;28;20049;-65
2022/07/18 02:35:41;;;;;;;3.78;1.15;;;;;;;23.03;36.22;102071.78;5014069;28;20491;-65
2022/07/18 02:38:06;;;;;;;13.48;1.25;;;;;;;23.01;36.78;102079.31;5014247;28;20128;-65
2022/07/18 02:40:32;;;;;;;1.60;1.20;;;;;;;23.00;36.24;102071.31;5015633;28;20048;-65
2022/07/18 02:42:57;;;;;;;4.63;0.90;;;;;;;22.97;36.18;102072.50;5014365;28;20030;-65
2022/07/18 02:45:23;;;;;;;6.70;1.70;;;;;;;22.98;36.51;102073.34;5015537;28;20117;-65
2022/07/18 02:47:48;;;;;;;5.65;1.33;;;;;;;22.93;36.78;102068.44;5014291;28;20112;-65
2022/07/18 02:50:15;;;;;;;2.55;1.15;;;;;;;22.92;36.57;102065.88;5013877;28;20026;-65
2022/07/18 02:52:41;;;;;;;3.40;1.33;;;;;;;22.88;36.74;102065.38;4997832;28;20487;-65
2022/07/18 02:55:08;;;;;;;2.05;0.88;;;;;;;22.85;36.03;102067.63;4981634;28;20045;-65
2022/07/18 02:57:33;;;;;;;2.88;0.95;;;;;;;22.80;36.53;102070.03;4997761;28;20065;-65
2022/07/18 02:59:59;;;;;;;1.75;1.02;;;;;;;22.75;36.78;102067.84;5013944;28;20491;-65
2022/07/18 03:02:25;;;;;;;3.65;1.25;;;;;;;22.72;36.94;102061.88;4981503;28;20096;-65
2022/07/18 03:04:50;;;;;;;4.15;1.05;;;;;;;22.69;37.19;102062.25;5014075;28;20040;-66
2022/07/18 03:07:16;;;;;;;4.55;1.67;;;;;;;22.66;36.67;102051.66;5013845;28;20058;-65
2022/07/18 03:09:41;;;;;;;2.80;1.90;;;;;;;22.62;36.84;102057.44;5013834;28;20033;-65
2022/07/18 03:12:06;;;;;;;1.70;1.00;;;;;;;22.56;36.62;102049.09;4997251;28;20037;-65
2022/07/18 03:14:33;;;;;;;2.63;1.35;;;;;;;22.53;37.19;102050.31;4993898;28;20124;-65
2022/07/18 03:16:58;;;;;;;5.50;1.85;;;;;;;22.48;37.05;102039.06;4994066;28;20030;-65
2022/07/18 03:19:24;;;;;;;4.88;1.13;;;;;;;22.48;36.95;102039.06;4977969;28;20465;-65
2022/07/18 03:21:49;;;;;;;2.55;0.88;;;;;;;22.48;36.59;102041.81;4994070;28;20029;-65
2022/07/18 03:24:15;;;;;;;5.80;1.45;;;;;;;22.46;37.31;102041.13;4993957;28;20062;-65
2022/07/18 03:26:41;;;;;;;3.30;1.30;;;;;;;22.47;36.89;102051.00;4995091;28;20026;-65
2022/07/18 03:29:06;;;;;;;5.95;1.40;;;;;;;22.43;37.18;102044.22;4995099;28;20026;-65
2022/07/18 03:31:31;;;;;;;3.97;1.20;;;;;;;22.43;37.63;102049.69;4977722;28;20149;-65
2022/07/18 03:33:57;;;;;;;7.05;1.60;;;;;;;22.43;37.83;102052.41;5011852;28;20026;-65
2022/07/18 03:36:22;;;;;;;4.60;0.90;;;;;;;22.41;37.10;102049.03;5013135;28;20609;-65
2022/07/18 03:38:48;;;;;;;3.63;1.20;;;;;;;22.39;37.62;102050.22;5013359;28;20117;-65
2022/07/18 03:41:13;;;;;;;11.18;1.50;;;;;;;22.38;37.96;102048.50;4996845;28;20113;-65
2022/07/18 03:43:39;;;;;;;7.25;1.48;;;;;;;22.34;37.54;102041.69;5013221;28;20483;-65
2022/07/18 03:46:05;;;;;;;4.38;1.15;;;;;;;22.34;37.94;102058.06;4996923;28;20033;-66
2022/07/18 03:48:30;;;;;;;5.75;1.65;;;;;;;22.29;37.33;102044.97;4996379;28;20407;-65
2022/07/18 03:50:56;;;;;;;3.95;1.25;;;;;;;22.32;37.52;102055.53;5012974;28;20017;-65
2022/07/18 03:53:21;;;;;;;3.95;1.45;;;;;;;22.26;37.55;102034.38;5012929;28;20030;-65
2022/07/18 03:55:46;;;;;;;4.15;1.17;;;;;;;22.23;37.79;102040.19;4996622;28;20387;-65
2022/07/18 03:58:12;;;;;;;8.57;2.45;;;;;;;22.24;37.91;102044.63;5012848;28;20033;-65
2022/07/18 04:00:37;;;;;;;5.93;1.75;;;;;;;22.22;37.94;102043.94;5013019;28;20124;-65
2022/07/18 04:03:03;;;;;;;16.75;2.13;;;;;;;22.20;37.79;102040.53;5012633;28;20168;-65
2022/07/18 04:05:28;;;;;;;4.22;1.45;;;;;;;22.19;37.70;102041.59;5012847;28;20037;-65
2022/07/18 04:07:54;;;;;;;7.72;1.60;;;;;;;22.14;37.89;102030.31;5012769;28;20608;-65
2022/07/18 04:10:19;;;;;;;4.78;1.73;;;;;;;22.15;37.56;102029.31;5012695;28;20052;-65
2022/07/18 04:12:50;;;;;;;3.40;1.48;;;;;;;22.18;38.30;102026.22;5012801;28;20029;-65
2022/07/18 04:15:16;;;;;;;5.05;1.75;;;;;;;22.20;37.68;102028.75;4996399;28;20040;-65
2022/07/18 04:17:41;;;;;;;4.30;1.63;;;;;;;22.21;38.29;102025.88;5012795;28;20030;-65
2022/07/18 04:20:08;;;;;;;7.10;1.25;;;;;;;22.23;37.99;102034.72;5013903;28;20022;-65
2022/07/18 04:23:02;;;;;;;7.35;1.20;;;;;;;22.27;38.21;102029.78;4996225;28;20113;-65
2022/07/18 04:25:33;;;;;;;4.97;1.50;;;;;;;22.30;38.23;102035.75;5012272;28;20032;-65
2022/07/18 04:27:59;;;;;;;4.68;1.80;;;;;;;22.35;37.82;102033.34;5012673;28;20053;-65
2022/07/18 04:30:26;;;;;;;4.70;2.08;;;;;;;22.42;38.46;102033.47;5012471;28;20033;-65
2022/07/18 04:32:52;;;;;;;2.90;1.63;;;;;;;22.48;38.10;102033.63;4996152;28;20482;-65
2022/07/18 04:35:17;;;;;;;2.30;1.45;;;;;;;22.53;38.68;102031.19;5013581;28;20053;-65
2022/07/18 04:37:42;;;;;;;4.50;1.40;;;;;;;22.60;38.41;102026.75;4995914;28;20057;-65
2022/07/18 04:40:09;;;;;;;6.22;1.73;;;;;;;22.67;38.04;102020.59;4996028;28;20032;-65
2022/07/18 04:42:34;;;;;;;3.08;1.48;;;;;;;22.78;38.72;102029.22;5013672;28;20045;-65
2022/07/18 04:45:00;;;;;;;2.63;1.30;;;;;;;22.86;37.71;102025.59;4996203;28;20487;-65
2022/07/18 04:47:27;;;;;;;2.78;1.13;;;;;;;22.92;38.25;102016.69;5013392;28;20480;-65
2022/07/18 04:49:53;;;;;;;4.03;1.95;;;;;;;23.00;38.77;102027.56;5012259;28;20587;-65
2022/07/18 04:52:18;;;;;;;10.88;1.88;;;;;;;23.05;38.15;102019.66;5013556;28;20029;-65
2022/07/18 04:54:44;;;;;;;4.47;1.70;;;;;;;23.10;37.86;102022.69;4995676;28;20396;-65
2022/07/18 04:57:11;;;;;;;3.05;1.38;;;;;;;23.19;38.76;102027.09;5012386;28;20026;-65
2022/07/18 04:59:37;;;;;;;3.40;1.58;;;;;;;23.26;38.73;102022.56;5012135;28;20534;-65
2022/07/18 05:02:02;;;;;;;8.45;1.40;;;;;;;23.39;37.77;102031.06;4995812;28;20412;-65
2022/07/18 05:04:28;;;;;;;4.68;2.00;;;;;;;23.49;38.30;102017.97;5013789;28;20022;-65
2022/07/18 05:06:54;;;;;;;3.08;1.98;;;;;;;23.60;38.08;102020.28;4979996;28;20049;-65
2022/07/18 05:09:19;;;;;;;7.78;2.38;;;;;;;23.67;38.29;102018.47;5013713;28;20038;-65
2022/07/18 05:11:44;;;;;;;2.97;1.75;;;;;;;23.78;37.71;102020.75;5012106;28;20104;-65
2022/07/18 05:14:10;;;;;;;3.08;2.00;;;;;;;23.85;37.95;102001.72;5013285;28;20065;-65
2022/07/18 05:16:38;;;;;;;3.30;1.65;;;;;;;23.95;38.38;102007.78;5012630;28;20034;-65
2022/07/18 05:19:04;;;;;;;4.30;2.28;;;;;;;24.03;38.20;102013.16;4995691;28;20037;-65
2022/07/18 05:21:30;;;;;;;6.00;2.25;;;;;;;24.15;37.72;102008.06;5012363;28;20387;-65
2022/07/18 05:23:56;;;;;;;4.78;1.75;;;;;;;24.22;37.85;102009.91;5014366;28;20034;-65
2022/07/18 05:26:21;;;;;;;3.00;1.85;;;;;;;24.32;38.19;102004.97;5013165;28;20523;-66
2022/07/18 05:28:46;;;;;;;2.90;1.42;;;;;;;24.42;38.68;102007.41;5013300;28;20037;-65
2022/07/18 05:31:12;;;;;;;3.40;2.20;;;;;;;24.53;38.46;102006.94;4995473;28;20068;-65
2022/07/18 05:33:37;;;;;;;4.38;1.95;;;;;;;24.66;38.65;102012.56;4995659;28;20407;-65
2022/07/18 05:36:04;;;;;;;7.72;2.92;;;;;;;24.83;37.61;102021.44;5015274;28;20085;-66
2022/07/18 05:38:29;;;;;;;3.83;2.25;;;;;;;25.01;37.64;102010.91;5015601;28;20372;-65
2022/07/18 05:40:55;;;;;;;2.42;1.58;;;;;;;25.16;37.91;102003.44;5015547;28;20104;-65
2022/07/18 05:43:20;;;;;;;5.13;2.45;;;;;;;25.42;37.36;102017.44;5015510;28;20041;-65
2022/07/18 05:45:45;;;;;;;4.85;2.13;;;;;;;25.61;37.72;102010.44;4999076;28;20397;-65
2022/07/18 05:48:11;;;;;;;5.25;2.15;;;;;;;25.86;37.24;102017.16;5015398;28;20030;-65
2022/07/18 05:50:36;;;;;;;5.20;1.95;;;;;;;26.13;36.60;102006.38;5011237;28;20100;-65
2022/07/18 05:53:01;;;;;;;7.75;2.40;;;;;;;26.44;36.75;102009.50;4979559;28;20049;-69
2022/07/18 05:55:27;;;;;;;3.83;2.20;;;;;;;26.73;36.13;102011.97;4979516;28;20034;-64
2022/07/18 05:57:53;;;;;;;7.88;2.30;;;;;;;27.01;35.86;102007.22;4995474;28;20022;-64
2022/07/18 06:00:19;;;;;;;6.65;2.38;;;;;;;27.31;35.30;102007.66;4979209;28;20476;-61
2022/07/18 06:02:47;;;;;;;5.05;2.33;;;;;;;27.59;35.29;102004.75;4995467;28;20033;-65
2022/07/18 06:05:13;;;;;;;7.53;2.45;;;;;;;27.88;34.74;102004.31;4995468;28;20026;-65
2022/07/18 06:07:38;;;;;;;6.25;1.60;;;;;;;28.11;35.04;102007.44;4995357;28;20030;-65
2022/07/18 06:10:04;;;;;;;5.68;1.77;;;;;;;28.40;35.03;102002.50;5004489;28;20038;-65
2022/07/18 06:12:30;;;;;;;5.82;2.28;;;;;;;28.65;34.10;102000.72;5014773;28;20044;-65
2022/07/18 06:14:56;;;;;;;8.40;1.88;;;;;;;28.90;34.17;102004.41;5014773;28;20100;-65
2022/07/18 06:17:22;;;;;;;2.38;2.05;;;;;;;29.10;34.30;102012.56;5014535;28;20559;-65
2022/07/18 06:19:47;;;;;;;6.63;2.05;;;;;;;29.24;33.47;102012.28;5015868;28;20026;-65
2022/07/18 06:22:12;;;;;;;5.10;2.10;;;;;;;29.34;33.42;102012.63;5014561;28;20040;-66
2022/07/18 06:24:38;;;;;;;6.43;2.28;;;;;;;29.45;33.80;102011.06;5014610;28;20058;-66
2022/07/18 06:27:03;;;;;;;6.00;2.50;;;;;;;29.59;33.59;102011.81;5014572;28;20087;-65
2022/07/18 06:29:28;;;;;;;6.15;1.63;;;;;;;29.72;33.17;102009.78;4998004;28;20018;-65
2022/07/18 06:31:54;;;;;;;4.45;2.15;;;;;;;29.77;32.44;102004.41;5014524;28;20049;-66
2022/07/18 06:34:19;;;;;;;8.68;2.75;;;;;;;29.85;32.26;101998.63;5015535;28;20026;-65
2022/07/18 06:36:45;;;;;;;4.03;1.80;;;;;;;29.89;32.47;101996.25;4997872;28;20054;-66
2022/07/18 06:39:11;;;;;;;4.28;1.70;;;;;;;29.98;31.99;101986.59;5015520;28;20018;-65
2022/07/18 06:41:39;;;;;;;9.18;1.85;;;;;;;30.17;32.73;101988.28;5014390;28;20125;-66
2022/07/18 06:44:05;;;;;;;6.05;1.85;;;;;;;30.27;31.91;101991.34;5015462;28;20033;-66
2022/07/18 06:46:31;;;;;;;6.10;1.80;;;;;;;30.41;32.15;101986.53;5013565;28;20017;-65
2022/07/18 06:48:56;;;;;;;4.05;1.67;;;;;;;30.62;31.96;101986.06;5015079;28;20407;-65
2022/07/18 06:51:22;;;;;;;10.18;2.17;;;;;;;30.85;32.06;101993.63;5013981;28;20408;-65
2022/07/18 06:53:47;;;;;;;4.05;1.42;;;;;;;31.07;31.26;101997.59;5014163;28;20061;-67
2022/07/18 06:56:12;;;;;;;6.85;2.63;;;;;;;31.29;31.42;101997.88;5013967;28;20568;-66
2022/07/18 06:58:38;;;;;;;6.28;1.55;;;;;;;31.50;31.41;101991.78;5015270;28;20037;-66
2022/07/18 07:01:06;;;;;;;9.95;1.73;;;;;;;31.80;30.60;101988.94;5013614;28;20042;-66
2022/07/18 07:03:32;;;;;;;3.50;1.60;;;;;;;32.02;30.65;101985.31;5015111;28;20036;-66
2022/07/18 07:05:57;;;;;;;2.78;1.50;;;;;;;32.14;30.45;101990.84;4981303;28;20030;-65
2022/07/18 07:08:22;;;;;;;3.45;1.40;;;;;;;32.43;30.14;101981.50;4981170;28;20034;-66
2022/07/18 07:10:48;;;;;;;1.95;1.30;;;;;;;32.71;29.63;101978.78;5014718;28;20424;-67
2022/07/18 07:13:13;;;;;;;6.35;1.50;;;;;;;33.00;29.64;101976.00;5013737;28;20099;-67
2022/07/18 07:15:40;;;;;;;2.58;1.60;;;;;;;33.23;29.30;101978.63;5013584;28;20038;-67
2022/07/18 07:18:05;;;;;;;4.90;1.70;;;;;;;33.46;29.67;101981.28;5010134;28;20033;-67
2022/07/18 07:20:31;;;;;;;3.05;1.33;;;;;;;33.70;28.86;101974.44;4994361;28;20109;-66
2022/07/18 07:22:57;;;;;;;4.80;1.70;;;;;;;33.92;29.18;101969.78;5001373;28;20034;-67
2022/07/18 07:25:24;;;;;;;6.13;1.38;;;;;;;34.21;29.06;101975.22;4988800;28;20476;-67
2022/07/18 07:27:51;;;;;;;7.68;1.88;;;;;;;34.41;28.77;101969.91;5011576;28;20479;-67
2022/07/18 07:30:16;;;;;;;5.20;1.38;;;;;;;34.64;27.58;101969.66;5013324;28;20038;-65
2022/07/18 07:32:43;;;;;;;3.30;1.20;;;;;;;34.87;27.42;101965.75;5012956;28;20116;-66
2022/07/18 07:35:12;;;;;;;2.40;1.42;;;;;;;35.08;28.02;101967.66;5002636;28;20026;-66
2022/07/18 07:37:52;;;;;;;5.38;1.60;;;;;;;35.24;27.53;101965.81;4995443;28;20068;-66
2022/07/18 07:40:18;;;;;;;5.00;1.20;;;;;;;35.39;27.56;101963.19;5005345;28;20017;-67
2022/07/18 07:42:44;;;;;;;4.25;1.05;;;;;;;35.61;26.72;101961.13;5000383;28;20034;-66
2022/07/18 07:45:10;;;;;;;5.45;1.30;;;;;;;35.85;26.91;101962.41;5003135;28;20103;-67
2022/07/18 07:47:36;;;;;;;2.85;1.52;;;;;;;36.06;26.65;101961.47;5004124;28;20025;-66
2022/07/18 07:50:04;;;;;;;6.55;1.70;;;;;;;36.29;26.68;101962.13;5001179;28;20361;-67
2022/07/18 07:52:29;;;;;;;3.85;1.50;;;;;;;36.51;25.83;101948.81;4998868;28;20030;-67
2022/07/18 07:54:55;;;;;;;3.65;1.35;;;;;;;36.68;25.82;101957.81;4992439;28;20030;-67
2022/07/18 07:57:20;;;;;;;5.47;1.08;;;;;;;36.84;25.72;101961.47;4993564;28;20109;-67
2022/07/18 07:59:46;;;;;;;2.45;1.10;;;;;;;37.01;25.57;101954.56;4992631;28;20023;-67
2022/07/18 08:02:11;;;;;;;2.70;1.20;;;;;;;37.22;25.78;101955.38;5003573;28;20030;-66
2022/07/18 08:04:37;;;;;;;4.35;1.15;;;;;;;37.45;25.76;101954.00;5002246;28;20152;-67
2022/07/18 08:07:02;;;;;;;4.25;1.50;;;;;;;37.67;25.27;101955.38;5002908;28;20030;-67
2022/07/18 08:09:28;;;;;;;6.40;1.75;;;;;;;37.78;24.82;101951.44;5001870;28;20388;-67
2022/07/18 08:11:53;;;;;;;2.55;1.25;;;;;;;37.92;25.06;101953.66;4992328;28;20435;-67
2022/07/18 08:14:18;;;;;;;4.97;1.90;;;;;;;38.11;25.04;101957.56;4980342;28;20546;-66
2022/07/18 08:16:44;;;;;;;20.00;2.55;;;;;;;38.27;24.33;101951.59;5012434;28;20427;-66
2022/07/18 08:19:09;;;;;;;5.82;1.40;;;;;;;38.33;24.72;101960.84;5013700;28;20026;-66
2022/07/18 08:21:35;;;;;;;3.60;1.08;;;;;;;38.49;23.99;101956.84;5012543;28;20030;-66
2022/07/18 08:24:00;;;;;;;3.92;1.10;;;;;;;38.58;24.00;101951.47;5012358;28;20128;-68
2022/07/18 08:26:25;;;;;;;2.03;0.80;;;;;;;38.69;23.24;101953.94;4979846;28;20030;-66
2022/07/18 08:28:51;;;;;;;2.40;0.88;;;;;;;38.87;23.91;101946.81;4993228;28;20042;-65
2022/07/18 08:31:18;;;;;;;3.33;0.93;;;;;;;39.03;23.20;101952.00;5008128;28;20049;-65
2022/07/18 08:33:44;;;;;;;7.03;1.25;;;;;;;39.13;23.46;101948.31;5012666;28;20508;-65
2022/07/18 08:36:09;;;;;;;6.47;2.60;;;;;;;39.28;23.18;101947.38;5011389;28;20050;-65
2022/07/18 08:38:35;;;;;;;4.60;1.02;;;;;;;39.44;23.35;101949.75;5011362;28;20495;-65
2022/07/18 08:41:00;;;;;;;2.13;0.98;;;;;;;39.57;22.24;101942.59;5011252;28;20018;-65
2022/07/18 08:43:26;;;;;;;2.92;1.25;;;;;;;39.71;22.07;101931.53;5011358;28;20084;-65
2022/07/18 08:45:56;;;;;;;3.60;0.68;;;;;;;39.77;21.60;101938.75;5009924;28;20034;-66
2022/07/18 08:48:21;;;;;;;5.20;1.30;;;;;;;39.81;22.38;101932.28;5001678;28;20502;-66
2022/07/18 08:50:48;;;;;;;6.43;1.80;;;;;;;39.86;21.84;101934.16;5000815;28;20089;-65
2022/07/18 08:53:14;;;;;;;3.40;1.30;;;;;;;39.94;21.40;101931.53;5002072;28;20049;-66
2022/07/18 08:55:40;;;;;;;4.30;1.30;;;;;;;40.02;21.63;101932.84;5000234;28;20034;-66
2022/07/18 08:58:05;;;;;;;1.73;1.30;;;;;;;40.13;21.11;101920.38;4984662;28;20030;-66
2022/07/18 09:00:30;;;;;;;6.13;1.35;;;;;;;40.22;20.94;101927.00;5000850;28;20030;-67
2022/07/18 09:03:00;;;;;;;4.80;1.85;;;;;;;40.28;21.11;101928.63;5000069;28;20028;-66
2022/07/18 09:05:25;;;;;;;5.93;1.10;;;;;;;40.37;21.04;101926.78;4991606;28;20041;-66
2022/07/18 09:07:51;;;;;;;3.28;1.60;;;;;;;40.43;21.36;101928.38;4991425;28;20030;-66
2022/07/18 09:10:16;;;;;;;4.75;2.05;;;;;;;40.47;21.09;101934.25;4995765;28;20022;-66
2022/07/18 09:12:58;;;;;;;6.97;1.38;;;;;;;40.56;21.11;101927.69;5004324;28;20027;-67
2022/07/18 09:15:23;;;;;;;4.00;1.52;;;;;;;40.71;21.39;101920.16;4999101;28;20030;-66
2022/07/18 09:17:49;;;;;;;4.85;2.13;;;;;;;40.83;20.45;101928.94;4979140;28;20061;-67
2022/07/18 09:20:15;;;;;;;5.45;1.40;;;;;;;40.97;20.84;101935.50;4978963;28;20114;-67
2022/07/18 09:22:47;;;;;;;7.75;2.00;;;;;;;41.10;20.18;101926.28;4995218;28;20404;-65
2022/07/18 09:25:17;;;;;;;3.03;1.52;;;;;;;41.24;20.35;101929.97;5001638;28;20056;-66
2022/07/18 09:27:45;;;;;;;5.05;1.40;;;;;;;41.39;20.26;101923.28;4985805;28;20040;-66
2022/07/18 09:30:28;;;;;;;3.58;1.15;;;;;;;41.53;20.34;101930.59;5014538;28;20034;-66
2022/07/18 09:33:03;;;;;;;2.00;1.55;;;;;;;41.67;20.25;101927.81;5015926;28;20061;-65
2022/07/18 09:35:30;;;;;;;3.33;1.60;;;;;;;41.76;20.25;101924.00;5014431;28;20116;-66
2022/07/18 09:38:00;;;;;;;7.00;1.83;;;;;;;41.82;19.95;101921.91;5014458;28;20053;-66
2022/07/18 09:40:28;;;;;;;9.07;1.77;;;;;;;41.92;19.96;101926.50;5014481;28;20046;-66
2022/07/18 09:42:55;;;;;;;3.67;1.23;;;;;;;42.05;20.01;101931.28;5015515;28;20573;-65
2022/07/18 09:45:25;;;;;;;3.83;1.92;;;;;;;42.19;19.56;101918.03;5014405;28;20475;-66
2022/07/18 09:47:53;;;;;;;4.80;1.33;;;;;;;42.38;19.85;101924.41;5014417;28;20407;-65
2022/07/18 09:50:40;;;;;;;9.23;2.25;;;;;;;42.56;19.47;101923.44;5002110;28;20073;-65
2022/07/18 09:53:39;;;;;;;3.92;1.63;;;;;;;42.78;19.37;101919.81;4995571;28;20062;-65
2022/07/18 09:56:06;;;;;;;5.88;1.35;;;;;;;42.98;19.09;101912.84;4995574;28;20030;-65
2022/07/18 09:58:34;;;;;;;6.32;2.75;;;;;;;43.16;19.05;101906.19;4995443;28;20026;-65
2022/07/18 10:01:01;;;;;;;2.95;1.45;;;;;;;43.37;19.39;101915.81;5005915;28;20061;-65
2022/07/18 10:03:27;;;;;;;4.03;1.30;;;;;;;43.62;18.91;101915.09;5015132;28;20123;-65
2022/07/18 10:05:55;;;;;;;2.55;1.10;;;;;;;43.87;18.94;101917.22;5015020;28;20046;-65
2022/07/18 10:08:23;;;;;;;4.15;2.20;;;;;;;44.21;18.57;101913.69;4993801;28;20032;-65
2022/07/18 10:10:50;;;;;;;25.08;23.70;;;;;;;44.64;17.82;101910.94;5005693;28;20395;-65
2022/07/18 10:13:17;;;;;;;8.65;8.15;;;;;;;45.12;17.70;101905.09;4990960;28;20438;-65
2022/07/18 10:15:44;;;;;;;3.80;1.42;;;;;;;45.90;17.73;101906.50;5008029;28;20041;-65
2022/07/18 10:18:11;;;;;;;3.60;1.10;;;;;;;47.00;16.51;101903.25;5014692;28;20030;-65
2022/07/18 10:20:39;;;;;;;2.17;1.08;;;;;;;47.78;15.93;101903.19;5014403;28;20084;-65
2022/07/18 10:23:13;;;;;;;1.63;1.08;;;;;;;47.61;15.97;101909.09;5014849;28;20026;-65
2022/07/18 10:25:39;;;;;;;1.77;1.20;;;;;;;47.17;15.98;101905.94;4998167;28;20029;-65
2022/07/18 10:28:07;;;;;;;4.00;1.80;;;;;;;46.86;16.28;101899.03;5015635;28;20088;-65
2022/07/18 10:30:44;;;;;;;2.95;1.00;;;;;;;46.68;16.27;101904.03;4997942;28;20025;-66
2022/07/18 10:33:47;;;;;;;4.53;1.70;;;;;;;46.62;15.99;101911.94;4998080;28;20060;-65
2022/07/18 10:36:22;;;;;;;1.08;1.08;;;;;;;46.62;16.14;101911.09;5014179;28;20452;-65
2022/07/18 10:39:07;;;;;;;5.00;1.50;;;;;;;46.62;15.87;101911.09;5014362;28;20492;-65
2022/07/18 10:41:38;;;;;;;2.85;1.17;;;;;;;46.62;15.82;101900.59;4997874;28;20499;-66
2022/07/18 10:44:24;;;;;;;1.58;1.40;;;;;;;46.69;15.64;101894.31;5015353;28;20080;-66
2022/07/18 10:47:17;;;;;;;6.15;1.95;;;;;;;46.67;16.00;101896.69;5015179;28;20030;-66
2022/07/18 10:49:49;;;;;;;2.15;1.45;;;;;;;46.62;15.61;101894.06;5014019;28;20026;-66
2022/07/18 10:52:23;;;;;;;;;;;;;;;46.87;15.86;101889.34;5015699;28;20030;-65
2022/07/18 10:55:16;;;;;;;1.92;1.30;;;;;;;47.05;16.11;101887.97;5015237;28;19913;-64
2022/07/18 10:57:46;;;;;;;1.48;1.33;;;;;;;47.30;15.89;101886.91;5013908;28;20091;-66
2022/07/18 11:00:14;;;;;;;2.15;1.95;;;;;;;47.46;15.35;101889.91;4997479;28;20472;-65
2022/07/18 11:02:47;;;;;;;2.38;1.27;;;;;;;47.58;15.09;101876.53;5013801;28;20033;-66
2022/07/18 11:05:24;;;;;;;1.50;1.40;;;;;;;47.73;15.18;101884.38;5014022;28;20083;-66
2022/07/18 11:08:17;;;;;;;2.00;1.27;;;;;;;47.88;15.20;101880.84;5014929;28;20036;-66
2022/07/18 11:13:29;;;;;;;3.30;1.35;;;;;;;47.99;14.75;101872.69;5014881;28;20487;-66
2022/07/18 11:15:55;;;;;;;2.38;1.02;;;;;;;47.97;14.99;101866.50;5014838;28;20442;-66
2022/07/18 11:18:21;;;;;;;2.42;1.08;;;;;;;47.96;15.07;101870.53;5014812;28;20022;-66
2022/07/18 11:20:47;;;;;;;3.70;1.00;;;;;;;48.00;14.94;101871.47;5013973;28;20045;-66
2022/07/18 11:23:28;;;;;;;2.50;1.13;;;;;;;48.10;14.86;101864.47;5013310;28;20479;-66
2022/07/18 11:25:56;;;;;;;1.35;0.98;;;;;;;48.20;15.00;101862.00;5013434;28;20028;-66
2022/07/18 11:28:22;;;;;;;2.65;0.95;;;;;;;48.29;15.03;101862.69;5013461;28;20114;-66
2022/07/18 11:31:03;;;;;;;2.33;0.70;;;;;;;48.45;14.56;101855.03;4996949;28;20450;-66